INFORMAÇÕES METEOROLÓGICAS
METAR FOR SBPJ
ADDS - METARS form results

(1105 UTC 18 July 2019)
Data provider http://aviationweather.gov/metar/data/
 
Forecast for: SBPJ (PALMAS , BR)
Text: TAF SBPJ 180400Z 1806/1818 10005KT CAVOK TN19/1809Z TX34/1817Z
Forecast period: 0600 to 1600 UTC 18 July 2019
Forecast type: FROM: standard forecast or significant change
Winds: from the E (100 degrees) at 6 MPH (5 knots; 2.6 m/s)
Visibility: 6 or more miles 10+ km)
Ceiling: unknown
Clouds: missing
Weather: no significant weather forecast for this period
Text: BECMG 1816/1817 27006KT RMK PED
Forecast period: 1600 to 1800 UTC 18 July 2019
Forecast type: BECOMING: Conditions expected to become as follows by 1700 UTC 18 July 2019
Winds: from the W (270 degrees) at 7 MPH (6 knots; 3.1 m/s)
Visibility: 6 or more miles 10+ km)
Ceiling: unknown
Clouds: missing
Weather: no significant weather forecast for this period

 MAPA DO AEROPORTO

 INFORMAÇÕES DA PISTA
Pista 14 Tamanho da pista 8202 ft Largura da pista 148 ft
Elevação da pista 0 ft Ranhura da pista 0 ft Proa da pista 0
Pista 32 Tamanho da pista 8202 ft Largura da pista 148 ft
Elevação da pista 0 ft Ranhura da pista 0 ft Proa da pista 0

 FREQUÊNCIAS DO AEROPORTO
Tipo AFIS Nome PALMAS RDO Frequência 119 MHZ
Tipo APP Nome PALMAS APP Frequência 119 MHZ
Tipo TWR Nome PALMAS TWR Frequência 118 MHZ

 AUXÍLIOS DE NAVEGAÇÃO PRÓXIMOS AO AEROPORTO
Tipo VOR-DME Nome Palmas Frequência 112200 KHZ





Powered by Virtual Airlines Manager [v2.6.2]